CJC9 weather

CLOSED Buffalo Narrows Heliport
Buffalo Narrows, Saskatchewan, Canada

Public forecast

Using degrees Celsius for public forecast. Weather courtesy of forecast.io.

METAR (pilot weather report)

Report is more than 2 hours old.

Closest report is Buffalo Narrows Airport, 2.7 nm (5.0 km) SE. Retrieved 2019/04/26 04:00 UTC (5 hours ago):

CYVT 260400Z 32005KT 15SM FEW100 FEW250 00/M04 A3007 RMK AC1CI1 AC TR CI TR LAST STFD OBS/NXT 261200 UTC SLP206

TAF (pilot weather forecast)

Forecast is more than 6 hours old.

Closest forecast is Buffalo Narrows Airport, 2.7 nm (5.0 km) SE. Retrieved 2019/04/26 01:00 UTC (8 hours ago):

TAF CYVT 260038Z 2601/2604 VRB03KT P6SM SCT050 BKN220 TEMPO 2601/2604 P6SM VCSH BKN050 BECMG 2601/2603 35007KT RMK NXT FCST WILL BE ISSUED AT 261345Z